DAL1045 KLAX-KSEA
Flight info
| Callsign | DAL1045 |
|---|---|
| Flight time | 2h 22m |
| Altitude | 34000 |
| Route | LADYJ4 CSTRO SHIMR LKV HAWKZ8 |
| Aircraft | A321/M-SDE3FGHIRWY/LB1 |
Departure
| Time | 2026-05-05 16:04 |
|---|---|
| Airport | Los Angeles International Airport (KLAX) |
Arrival
| Time | 2026-05-05 18:27 |
|---|---|
| Airport | Seattle–Tacoma International Airport (KSEA) |
| Time | Latitude | Longitude | Altitude | Speed | Heading |
|---|---|---|---|---|---|
| 2026-05-05 15:03 | 33.94602 | -118.40806 | 93 ft | 0 kts | 112° |
| 2026-05-05 15:51 | 33.94606 | -118.40817 | 94 ft | 3 kts | 110° |
| 2026-05-05 15:51 | 33.94613 | -118.40843 | 93 ft | 3 kts | 102° |
| 2026-05-05 15:51 | 33.94616 | -118.40871 | 91 ft | 3 kts | 83° |
| 2026-05-05 15:52 | 33.94610 | -118.40892 | 91 ft | 3 kts | 27° |
| 2026-05-05 15:52 | 33.94604 | -118.40896 | 91 ft | 0 kts | 353° |
| 2026-05-05 15:58 | 33.94616 | -118.40897 | 93 ft | 4 kts | 353° |
| 2026-05-05 15:58 | 33.94654 | -118.40902 | 94 ft | 9 kts | 353° |
| 2026-05-05 15:58 | 33.94717 | -118.40911 | 95 ft | 8 kts | 356° |
| 2026-05-05 15:59 | 33.94764 | -118.40890 | 93 ft | 6 kts | 30° |
| 2026-05-05 15:59 | 33.94808 | -118.40877 | 95 ft | 7 kts | 21° |
| 2026-05-05 15:59 | 33.94836 | -118.40831 | 96 ft | 6 kts | 72° |
| 2026-05-05 15:59 | 33.94848 | -118.40750 | 97 ft | 14 kts | 82° |
| 2026-05-05 16:00 | 33.94859 | -118.40635 | 94 ft | 13 kts | 83° |
| 2026-05-05 16:00 | 33.94870 | -118.40533 | 94 ft | 12 kts | 83° |
| 2026-05-05 16:00 | 33.94879 | -118.40443 | 94 ft | 10 kts | 83° |
| 2026-05-05 16:00 | 33.94887 | -118.40365 | 94 ft | 8 kts | 83° |
| 2026-05-05 16:01 | 33.94893 | -118.40302 | 94 ft | 7 kts | 83° |
| 2026-05-05 16:01 | 33.94901 | -118.40226 | 95 ft | 15 kts | 82° |
| 2026-05-05 16:01 | 33.94914 | -118.40101 | 95 ft | 15 kts | 83° |
| 2026-05-05 16:01 | 33.94925 | -118.39994 | 93 ft | 10 kts | 83° |
| 2026-05-05 16:02 | 33.94932 | -118.39952 | 93 ft | 4 kts | 69° |
| 2026-05-05 16:02 | 33.94944 | -118.39932 | 93 ft | 2 kts | 46° |
| 2026-05-05 16:02 | 33.94964 | -118.39916 | 93 ft | 7 kts | 26° |
| 2026-05-05 16:02 | 33.95015 | -118.39916 | 94 ft | 7 kts | 342° |
| 2026-05-05 16:03 | 33.95038 | -118.39952 | 94 ft | 5 kts | 285° |
| 2026-05-05 16:03 | 33.95039 | -118.39985 | 95 ft | 3 kts | 265° |
| 2026-05-05 16:03 | 33.95034 | -118.40030 | 95 ft | 11 kts | 263° |
| 2026-05-05 16:03 | 33.94996 | -118.40412 | 97 ft | 88 kts | 262° |
| 2026-05-05 16:04 | 33.94890 | -118.41434 | 101 ft | 155 kts | 263° |
| 2026-05-05 16:04 | 33.94730 | -118.42901 | 362 ft | 186 kts | 262° |
| 2026-05-05 16:04 | 33.94549 | -118.44423 | 1383 ft | 181 kts | 262° |
| 2026-05-05 16:04 | 33.94401 | -118.45918 | 2250 ft | 180 kts | 263° |
| 2026-05-05 16:05 | 33.94288 | -118.47459 | 2519 ft | 194 kts | 267° |
| 2026-05-05 16:05 | 33.94231 | -118.49166 | 2648 ft | 214 kts | 268° |
| 2026-05-05 16:05 | 33.94182 | -118.51051 | 2779 ft | 238 kts | 267° |
| 2026-05-05 16:05 | 33.94065 | -118.53112 | 3216 ft | 252 kts | 265° |
| 2026-05-05 16:06 | 33.93908 | -118.55200 | 3912 ft | 255 kts | 265° |
| 2026-05-05 16:06 | 33.93735 | -118.57339 | 4657 ft | 258 kts | 265° |
| 2026-05-05 16:06 | 33.93566 | -118.59504 | 5370 ft | 261 kts | 268° |
| 2026-05-05 16:06 | 33.93766 | -118.61682 | 6043 ft | 264 kts | 287° |
| 2026-05-05 16:07 | 33.94576 | -118.63675 | 6693 ft | 268 kts | 307° |
| 2026-05-05 16:07 | 33.95920 | -118.65238 | 7344 ft | 272 kts | 326° |
| 2026-05-05 16:07 | 33.97542 | -118.66437 | 7851 ft | 276 kts | 330° |
| 2026-05-05 16:07 | 33.99306 | -118.67320 | 8035 ft | 276 kts | 346° |
| 2026-05-05 16:08 | 34.01219 | -118.67590 | 8675 ft | 279 kts | 0° |
| 2026-05-05 16:08 | 34.03165 | -118.67466 | 9368 ft | 281 kts | 2° |
| 2026-05-05 16:08 | 34.05131 | -118.67338 | 10032 ft | 284 kts | 2° |
| 2026-05-05 16:08 | 34.07116 | -118.67212 | 10627 ft | 287 kts | 3° |
| 2026-05-05 16:09 | 34.09109 | -118.66866 | 11220 ft | 291 kts | 9° |
| 2026-05-05 16:09 | 34.11110 | -118.66395 | 11815 ft | 294 kts | 9° |
| 2026-05-05 16:09 | 34.13131 | -118.65920 | 12426 ft | 297 kts | 9° |
| 2026-05-05 16:09 | 34.15172 | -118.65437 | 13009 ft | 302 kts | 9° |
| 2026-05-05 16:10 | 34.17272 | -118.64941 | 13154 ft | 321 kts | 9° |
| 2026-05-05 16:10 | 34.19527 | -118.64411 | 13289 ft | 339 kts | 9° |
| 2026-05-05 16:10 | 34.21903 | -118.63854 | 13427 ft | 356 kts | 8° |
| 2026-05-05 16:10 | 34.24418 | -118.63569 | 13579 ft | 370 kts | 358° |
| 2026-05-05 16:11 | 34.27000 | -118.63839 | 13961 ft | 375 kts | 348° |
| 2026-05-05 16:11 | 34.34796 | -118.65627 | 15445 ft | 384 kts | 348° |
| 2026-05-05 16:12 | 34.37432 | -118.66226 | 15940 ft | 387 kts | 348° |
| 2026-05-05 16:12 | 34.42746 | -118.67435 | 16947 ft | 391 kts | 349° |
| 2026-05-05 16:13 | 34.50871 | -118.69073 | 18359 ft | 398 kts | 351° |
| 2026-05-05 16:13 | 34.53620 | -118.69582 | 18771 ft | 401 kts | 351° |
| 2026-05-05 16:13 | 34.56346 | -118.70091 | 19173 ft | 403 kts | 351° |
| 2026-05-05 16:14 | 34.61915 | -118.71161 | 19978 ft | 408 kts | 350° |
| 2026-05-05 16:14 | 34.67541 | -118.72266 | 20793 ft | 412 kts | 350° |
| 2026-05-05 16:15 | 34.73088 | -118.74029 | 21594 ft | 415 kts | 335° |
| 2026-05-05 16:15 | 34.78181 | -118.77407 | 22411 ft | 419 kts | 330° |
| 2026-05-05 16:16 | 34.83293 | -118.80911 | 23201 ft | 423 kts | 330° |
| 2026-05-05 16:16 | 34.88450 | -118.84455 | 23898 ft | 428 kts | 331° |
| 2026-05-05 16:17 | 34.93663 | -118.88037 | 24526 ft | 432 kts | 331° |
| 2026-05-05 16:17 | 34.96281 | -118.89840 | 24850 ft | 433 kts | 331° |
| 2026-05-05 16:18 | 35.01544 | -118.93471 | 25462 ft | 437 kts | 332° |
| 2026-05-05 16:18 | 35.04200 | -118.95305 | 25724 ft | 440 kts | 332° |
| 2026-05-05 16:18 | 35.09532 | -118.98992 | 26372 ft | 442 kts | 332° |
| 2026-05-05 16:19 | 35.12211 | -119.00845 | 26655 ft | 443 kts | 333° |
| 2026-05-05 16:19 | 35.14900 | -119.02706 | 26932 ft | 445 kts | 333° |
| 2026-05-05 16:19 | 35.20302 | -119.06448 | 27489 ft | 447 kts | 334° |
| 2026-05-05 16:20 | 35.25723 | -119.10211 | 28130 ft | 448 kts | 334° |
| 2026-05-05 16:20 | 35.31116 | -119.13972 | 28894 ft | 445 kts | 334° |
| 2026-05-05 16:21 | 35.36479 | -119.17718 | 29624 ft | 443 kts | 334° |
| 2026-05-05 16:22 | 35.44529 | -119.23130 | 30588 ft | 435 kts | 342° |
| 2026-05-05 16:22 | 35.50294 | -119.25161 | 31081 ft | 430 kts | 351° |
| 2026-05-05 16:23 | 35.56103 | -119.26887 | 31590 ft | 430 kts | 350° |
| 2026-05-05 16:23 | 35.59011 | -119.27758 | 31824 ft | 430 kts | 351° |
| 2026-05-05 16:23 | 35.64800 | -119.29493 | 32409 ft | 428 kts | 350° |
| 2026-05-05 16:24 | 35.67692 | -119.30359 | 32667 ft | 428 kts | 350° |
| 2026-05-05 16:24 | 35.70583 | -119.31226 | 32929 ft | 428 kts | 350° |
| 2026-05-05 16:24 | 35.76362 | -119.32964 | 33439 ft | 428 kts | 349° |
| 2026-05-05 16:25 | 35.79252 | -119.33835 | 33684 ft | 427 kts | 350° |
| 2026-05-05 16:25 | 35.85026 | -119.35576 | 34043 ft | 427 kts | 349° |
| 2026-05-05 16:25 | 35.87906 | -119.36444 | 34054 ft | 426 kts | 350° |
| 2026-05-05 16:26 | 35.99356 | -119.39887 | 34047 ft | 425 kts | 350° |
| 2026-05-05 16:27 | 36.05099 | -119.41628 | 34050 ft | 425 kts | 350° |
| 2026-05-05 16:27 | 36.10840 | -119.43375 | 34056 ft | 425 kts | 350° |
| 2026-05-05 16:28 | 36.16583 | -119.45112 | 34058 ft | 425 kts | 351° |
| 2026-05-05 16:28 | 36.22319 | -119.46847 | 34065 ft | 424 kts | 351° |
| 2026-05-05 16:29 | 36.28042 | -119.48592 | 34069 ft | 423 kts | 351° |
| 2026-05-05 16:29 | 36.33756 | -119.50336 | 34070 ft | 423 kts | 351° |
| 2026-05-05 16:30 | 36.39465 | -119.52079 | 34059 ft | 422 kts | 352° |
| 2026-05-05 16:30 | 36.45156 | -119.53814 | 34076 ft | 421 kts | 352° |
| 2026-05-05 16:31 | 36.50825 | -119.55547 | 34076 ft | 419 kts | 352° |
| 2026-05-05 16:31 | 36.56435 | -119.57264 | 34071 ft | 418 kts | 352° |
| 2026-05-05 16:32 | 36.62073 | -119.58999 | 34059 ft | 417 kts | 353° |
| 2026-05-05 16:32 | 36.67702 | -119.60743 | 34064 ft | 417 kts | 353° |
| 2026-05-05 16:33 | 36.73328 | -119.62475 | 34070 ft | 416 kts | 353° |
| 2026-05-05 16:33 | 36.78954 | -119.64211 | 34069 ft | 416 kts | 353° |
| 2026-05-05 16:34 | 36.84576 | -119.65946 | 34064 ft | 416 kts | 353° |
| 2026-05-05 16:34 | 36.90186 | -119.67674 | 34059 ft | 415 kts | 353° |
| 2026-05-05 16:35 | 36.95798 | -119.69404 | 34053 ft | 415 kts | 353° |
| 2026-05-05 16:35 | 37.01365 | -119.71136 | 34022 ft | 415 kts | 354° |
| 2026-05-05 16:36 | 37.06963 | -119.72877 | 34036 ft | 414 kts | 354° |
| 2026-05-05 16:36 | 37.12552 | -119.74614 | 34038 ft | 414 kts | 354° |
| 2026-05-05 16:37 | 37.18135 | -119.76351 | 34026 ft | 413 kts | 354° |
| 2026-05-05 16:37 | 37.23705 | -119.78094 | 34032 ft | 412 kts | 354° |
| 2026-05-05 16:38 | 37.29266 | -119.79838 | 34040 ft | 411 kts | 354° |
| 2026-05-05 16:38 | 37.34819 | -119.81573 | 34030 ft | 411 kts | 354° |
| 2026-05-05 16:39 | 37.40361 | -119.83308 | 34008 ft | 410 kts | 354° |
| 2026-05-05 16:39 | 37.45892 | -119.85042 | 34021 ft | 409 kts | 354° |
| 2026-05-05 16:40 | 37.51419 | -119.86786 | 34029 ft | 409 kts | 354° |
| 2026-05-05 16:40 | 37.56928 | -119.88523 | 34013 ft | 408 kts | 354° |
| 2026-05-05 16:41 | 37.62407 | -119.90244 | 34021 ft | 408 kts | 355° |
| 2026-05-05 16:41 | 37.67913 | -119.91985 | 34017 ft | 407 kts | 355° |
| 2026-05-05 16:42 | 37.73411 | -119.93728 | 34012 ft | 407 kts | 354° |
| 2026-05-05 16:42 | 37.78911 | -119.95472 | 33996 ft | 408 kts | 355° |
| 2026-05-05 16:43 | 37.84418 | -119.97226 | 33994 ft | 408 kts | 355° |
| 2026-05-05 16:43 | 37.89925 | -119.98976 | 33993 ft | 408 kts | 355° |
| 2026-05-05 16:44 | 37.94509 | -120.00428 | 33982 ft | 408 kts | 355° |
| 2026-05-05 16:44 | 38.00027 | -120.02187 | 33988 ft | 409 kts | 355° |
| 2026-05-05 16:45 | 38.05546 | -120.03950 | 33988 ft | 409 kts | 355° |
| 2026-05-05 16:45 | 38.11972 | -120.06001 | 34001 ft | 410 kts | 355° |
| 2026-05-05 16:46 | 38.16605 | -120.07487 | 33986 ft | 410 kts | 354° |
| 2026-05-05 16:46 | 38.22138 | -120.09269 | 33986 ft | 409 kts | 356° |
| 2026-05-05 16:47 | 38.27685 | -120.10057 | 33985 ft | 399 kts | 4° |
| 2026-05-05 16:47 | 38.33233 | -120.10553 | 33974 ft | 400 kts | 4° |
| 2026-05-05 16:48 | 38.38746 | -120.11045 | 33978 ft | 400 kts | 4° |
| 2026-05-05 16:48 | 38.44298 | -120.11550 | 33973 ft | 400 kts | 4° |
| 2026-05-05 16:49 | 38.49846 | -120.12055 | 33977 ft | 400 kts | 4° |
| 2026-05-05 16:49 | 38.55394 | -120.12564 | 33966 ft | 400 kts | 4° |
| 2026-05-05 16:50 | 38.60945 | -120.13071 | 33975 ft | 400 kts | 4° |
| 2026-05-05 16:50 | 38.66497 | -120.13572 | 33981 ft | 400 kts | 4° |
| 2026-05-05 16:51 | 38.72047 | -120.14084 | 33985 ft | 400 kts | 4° |
| 2026-05-05 16:51 | 38.77596 | -120.14595 | 33977 ft | 400 kts | 4° |
| 2026-05-05 16:52 | 38.83145 | -120.15111 | 33978 ft | 400 kts | 4° |
| 2026-05-05 16:52 | 38.88693 | -120.15627 | 33978 ft | 399 kts | 4° |
| 2026-05-05 16:53 | 38.94239 | -120.16137 | 33966 ft | 400 kts | 4° |
| 2026-05-05 16:53 | 38.99779 | -120.16646 | 33975 ft | 399 kts | 4° |
| 2026-05-05 16:54 | 39.05322 | -120.17155 | 34009 ft | 399 kts | 4° |
| 2026-05-05 16:54 | 39.10866 | -120.17674 | 34005 ft | 399 kts | 4° |
| 2026-05-05 16:55 | 39.16366 | -120.18189 | 34029 ft | 399 kts | 4° |
| 2026-05-05 16:55 | 39.21899 | -120.18703 | 34054 ft | 398 kts | 5° |
| 2026-05-05 16:56 | 39.27426 | -120.19208 | 34061 ft | 399 kts | 5° |
| 2026-05-05 16:56 | 39.32959 | -120.19724 | 34055 ft | 398 kts | 5° |
| 2026-05-05 16:57 | 39.38488 | -120.20249 | 33951 ft | 398 kts | 5° |
| 2026-05-05 16:57 | 39.44014 | -120.20767 | 33952 ft | 398 kts | 5° |
| 2026-05-05 16:58 | 39.49537 | -120.21281 | 33932 ft | 398 kts | 5° |
| 2026-05-05 16:58 | 39.55053 | -120.21800 | 33947 ft | 397 kts | 5° |
| 2026-05-05 16:59 | 39.60532 | -120.22315 | 33952 ft | 397 kts | 5° |
| 2026-05-05 16:59 | 39.66047 | -120.22826 | 33954 ft | 397 kts | 5° |
| 2026-05-05 17:00 | 39.71559 | -120.23347 | 33947 ft | 397 kts | 4° |
| 2026-05-05 17:00 | 39.77063 | -120.23871 | 33951 ft | 397 kts | 4° |
| 2026-05-05 17:01 | 39.82565 | -120.24389 | 33953 ft | 396 kts | 4° |
| 2026-05-05 17:01 | 39.88067 | -120.24903 | 33923 ft | 396 kts | 4° |
| 2026-05-05 17:02 | 39.93571 | -120.25436 | 33924 ft | 397 kts | 4° |
| 2026-05-05 17:02 | 39.99087 | -120.25969 | 33921 ft | 397 kts | 4° |
| 2026-05-05 17:03 | 40.04598 | -120.26498 | 33924 ft | 397 kts | 4° |
| 2026-05-05 17:03 | 40.10114 | -120.27020 | 33911 ft | 397 kts | 4° |
| 2026-05-05 17:04 | 40.15630 | -120.27542 | 33922 ft | 397 kts | 4° |
| 2026-05-05 17:04 | 40.21146 | -120.28066 | 33932 ft | 397 kts | 4° |
| 2026-05-05 17:05 | 40.26627 | -120.28592 | 33941 ft | 398 kts | 3° |
| 2026-05-05 17:05 | 40.32187 | -120.29131 | 33951 ft | 398 kts | 3° |
| 2026-05-05 17:06 | 40.37716 | -120.29663 | 33954 ft | 398 kts | 3° |
| 2026-05-05 17:06 | 40.43245 | -120.30196 | 33949 ft | 399 kts | 3° |
| 2026-05-05 17:07 | 40.48782 | -120.30726 | 33952 ft | 399 kts | 3° |
| 2026-05-05 17:07 | 40.54277 | -120.31258 | 33946 ft | 399 kts | 3° |
| 2026-05-05 17:08 | 40.59845 | -120.31794 | 33937 ft | 399 kts | 3° |
| 2026-05-05 17:08 | 40.65341 | -120.32329 | 33929 ft | 399 kts | 3° |
| 2026-05-05 17:09 | 40.70875 | -120.32869 | 33921 ft | 399 kts | 3° |
| 2026-05-05 17:09 | 40.76407 | -120.33404 | 33923 ft | 399 kts | 3° |
| 2026-05-05 17:10 | 40.81937 | -120.33939 | 33908 ft | 398 kts | 2° |
| 2026-05-05 17:10 | 40.87469 | -120.34479 | 33919 ft | 399 kts | 2° |
| 2026-05-05 17:11 | 40.92999 | -120.35030 | 33922 ft | 399 kts | 2° |
| 2026-05-05 17:11 | 40.98534 | -120.35569 | 33914 ft | 399 kts | 2° |
| 2026-05-05 17:12 | 41.04070 | -120.36117 | 33917 ft | 399 kts | 2° |
| 2026-05-05 17:12 | 41.09616 | -120.36664 | 33939 ft | 399 kts | 2° |
| 2026-05-05 17:13 | 41.15159 | -120.37212 | 33937 ft | 400 kts | 2° |
| 2026-05-05 17:13 | 41.20701 | -120.37756 | 33933 ft | 399 kts | 2° |
| 2026-05-05 17:14 | 41.26253 | -120.38301 | 33964 ft | 401 kts | 1° |
| 2026-05-05 17:14 | 41.31818 | -120.38847 | 33982 ft | 401 kts | 1° |
| 2026-05-05 17:15 | 41.37386 | -120.39401 | 33981 ft | 401 kts | 1° |
| 2026-05-05 17:15 | 41.42960 | -120.39969 | 34001 ft | 402 kts | 1° |
| 2026-05-05 17:16 | 41.48501 | -120.40514 | 33941 ft | 402 kts | 1° |
| 2026-05-05 17:16 | 41.54077 | -120.41068 | 33942 ft | 402 kts | 1° |
| 2026-05-05 17:17 | 41.59652 | -120.41623 | 33919 ft | 402 kts | 1° |
| 2026-05-05 17:17 | 41.65235 | -120.42177 | 33926 ft | 402 kts | 1° |
| 2026-05-05 17:18 | 41.70821 | -120.42730 | 33932 ft | 403 kts | 1° |
| 2026-05-05 17:18 | 41.76408 | -120.43287 | 33917 ft | 403 kts | 1° |
| 2026-05-05 17:19 | 41.82002 | -120.43855 | 33938 ft | 403 kts | 0° |
| 2026-05-05 17:19 | 41.87595 | -120.44427 | 33959 ft | 403 kts | 1° |
| 2026-05-05 17:20 | 41.93186 | -120.44996 | 33962 ft | 403 kts | 0° |
| 2026-05-05 17:20 | 41.98782 | -120.45564 | 33983 ft | 403 kts | 0° |
| 2026-05-05 17:21 | 42.04378 | -120.46126 | 34001 ft | 403 kts | 0° |
| 2026-05-05 17:22 | 42.12743 | -120.46967 | 34013 ft | 404 kts | 0° |
| 2026-05-05 17:22 | 42.18351 | -120.47539 | 34009 ft | 404 kts | 360° |
| 2026-05-05 17:23 | 42.23967 | -120.48118 | 33933 ft | 405 kts | 360° |
| 2026-05-05 17:23 | 42.29589 | -120.48694 | 33938 ft | 405 kts | 360° |
| 2026-05-05 17:24 | 42.35217 | -120.49267 | 33936 ft | 406 kts | 360° |
| 2026-05-05 17:24 | 42.40847 | -120.49839 | 33934 ft | 406 kts | 360° |
| 2026-05-05 17:25 | 42.46486 | -120.50421 | 33938 ft | 406 kts | 359° |
| 2026-05-05 17:25 | 42.52014 | -120.52320 | 33942 ft | 418 kts | 341° |
| 2026-05-05 17:26 | 42.57332 | -120.55546 | 33947 ft | 419 kts | 341° |
| 2026-05-05 17:26 | 42.62647 | -120.58774 | 33950 ft | 419 kts | 341° |
| 2026-05-05 17:27 | 42.67964 | -120.62006 | 33944 ft | 419 kts | 341° |
| 2026-05-05 17:27 | 42.73249 | -120.65218 | 33951 ft | 419 kts | 341° |
| 2026-05-05 17:28 | 42.78565 | -120.68447 | 33956 ft | 418 kts | 341° |
| 2026-05-05 17:28 | 42.83880 | -120.71688 | 33958 ft | 419 kts | 341° |
| 2026-05-05 17:29 | 42.89194 | -120.74937 | 33941 ft | 419 kts | 341° |
| 2026-05-05 17:29 | 42.94510 | -120.78184 | 33946 ft | 419 kts | 341° |
| 2026-05-05 17:30 | 42.99829 | -120.81440 | 33948 ft | 419 kts | 341° |
| 2026-05-05 17:30 | 43.05145 | -120.84706 | 33933 ft | 419 kts | 340° |
| 2026-05-05 17:31 | 43.10464 | -120.87985 | 33933 ft | 420 kts | 340° |
| 2026-05-05 17:31 | 43.15754 | -120.91253 | 33937 ft | 420 kts | 340° |
| 2026-05-05 17:32 | 43.21079 | -120.94536 | 33926 ft | 420 kts | 340° |
| 2026-05-05 17:32 | 43.26408 | -120.97833 | 33933 ft | 420 kts | 340° |
| 2026-05-05 17:33 | 43.31737 | -121.01144 | 33942 ft | 420 kts | 340° |
| 2026-05-05 17:33 | 43.37061 | -121.04454 | 33942 ft | 420 kts | 340° |
| 2026-05-05 17:34 | 43.42381 | -121.07759 | 33943 ft | 419 kts | 340° |
| 2026-05-05 17:34 | 43.47692 | -121.11072 | 33951 ft | 419 kts | 340° |
| 2026-05-05 17:35 | 43.52996 | -121.14401 | 33956 ft | 419 kts | 340° |
| 2026-05-05 17:35 | 43.58299 | -121.17720 | 33953 ft | 418 kts | 340° |
| 2026-05-05 17:36 | 43.63593 | -121.21037 | 33962 ft | 418 kts | 339° |
| 2026-05-05 17:36 | 43.68842 | -121.24335 | 33963 ft | 417 kts | 339° |
| 2026-05-05 17:37 | 43.74122 | -121.27660 | 33956 ft | 417 kts | 339° |
| 2026-05-05 17:37 | 43.79393 | -121.30988 | 33973 ft | 416 kts | 339° |
| 2026-05-05 17:38 | 43.84656 | -121.34320 | 33982 ft | 416 kts | 339° |
| 2026-05-05 17:38 | 43.89914 | -121.37653 | 33995 ft | 415 kts | 339° |
| 2026-05-05 17:39 | 43.95168 | -121.40988 | 33995 ft | 415 kts | 339° |
| 2026-05-05 17:39 | 43.99528 | -121.43766 | 33999 ft | 415 kts | 339° |
| 2026-05-05 17:40 | 44.04772 | -121.47104 | 34011 ft | 414 kts | 339° |
| 2026-05-05 17:40 | 44.10006 | -121.50445 | 33992 ft | 414 kts | 339° |
| 2026-05-05 17:41 | 44.15231 | -121.53790 | 33988 ft | 413 kts | 339° |
| 2026-05-05 17:41 | 44.20454 | -121.57142 | 33976 ft | 413 kts | 339° |
| 2026-05-05 17:42 | 44.25677 | -121.60486 | 33972 ft | 413 kts | 339° |
| 2026-05-05 17:42 | 44.30897 | -121.63847 | 33965 ft | 413 kts | 339° |
| 2026-05-05 17:43 | 44.36110 | -121.67215 | 33969 ft | 413 kts | 339° |
| 2026-05-05 17:43 | 44.41325 | -121.70589 | 33967 ft | 413 kts | 339° |
| 2026-05-05 17:44 | 44.46538 | -121.73960 | 33953 ft | 413 kts | 339° |
| 2026-05-05 17:44 | 44.51751 | -121.77328 | 33958 ft | 413 kts | 339° |
| 2026-05-05 17:45 | 44.56930 | -121.80697 | 33966 ft | 413 kts | 339° |
| 2026-05-05 17:45 | 44.62145 | -121.84107 | 33982 ft | 414 kts | 339° |
| 2026-05-05 17:46 | 44.67366 | -121.87513 | 33977 ft | 414 kts | 338° |
| 2026-05-05 17:46 | 44.72594 | -121.90924 | 33988 ft | 414 kts | 338° |
| 2026-05-05 17:47 | 44.77818 | -121.94341 | 34015 ft | 414 kts | 338° |
| 2026-05-05 17:47 | 44.83037 | -121.97767 | 34016 ft | 414 kts | 338° |
| 2026-05-05 17:48 | 44.88243 | -122.01195 | 34014 ft | 413 kts | 338° |
| 2026-05-05 17:48 | 44.93450 | -122.04631 | 34028 ft | 413 kts | 338° |
| 2026-05-05 17:49 | 44.98658 | -122.08066 | 34041 ft | 413 kts | 338° |
| 2026-05-05 17:49 | 45.03860 | -122.11511 | 34028 ft | 413 kts | 338° |
| 2026-05-05 17:50 | 45.09060 | -122.14957 | 34052 ft | 413 kts | 338° |
| 2026-05-05 17:50 | 45.14228 | -122.18387 | 34061 ft | 413 kts | 338° |
| 2026-05-05 17:51 | 45.19433 | -122.21858 | 34067 ft | 414 kts | 338° |
| 2026-05-05 17:51 | 45.24635 | -122.25340 | 34066 ft | 413 kts | 338° |
| 2026-05-05 17:52 | 45.29843 | -122.28817 | 34073 ft | 414 kts | 338° |
| 2026-05-05 17:52 | 45.35056 | -122.32292 | 34075 ft | 414 kts | 338° |
| 2026-05-05 17:53 | 45.40274 | -122.35782 | 34070 ft | 414 kts | 338° |
| 2026-05-05 17:53 | 45.45451 | -122.39273 | 34076 ft | 415 kts | 337° |
| 2026-05-05 17:54 | 45.50663 | -122.42791 | 34076 ft | 415 kts | 337° |
| 2026-05-05 17:54 | 45.55879 | -122.46317 | 34081 ft | 415 kts | 337° |
| 2026-05-05 17:55 | 45.61096 | -122.49843 | 34089 ft | 415 kts | 337° |
| 2026-05-05 17:55 | 45.66306 | -122.53384 | 34095 ft | 415 kts | 337° |
| 2026-05-05 17:56 | 45.71514 | -122.56934 | 34088 ft | 415 kts | 337° |
| 2026-05-05 17:56 | 45.76909 | -122.59689 | 34093 ft | 411 kts | 351° |
| 2026-05-05 17:57 | 45.82545 | -122.61061 | 34096 ft | 411 kts | 351° |
| 2026-05-05 17:57 | 45.88183 | -122.62452 | 34099 ft | 411 kts | 351° |
| 2026-05-05 17:58 | 45.93824 | -122.63855 | 34098 ft | 411 kts | 351° |
| 2026-05-05 17:58 | 45.99422 | -122.65242 | 34086 ft | 411 kts | 351° |
| 2026-05-05 17:59 | 46.05060 | -122.66645 | 34086 ft | 411 kts | 351° |
| 2026-05-05 17:59 | 46.10704 | -122.68045 | 34092 ft | 412 kts | 352° |
| 2026-05-05 18:00 | 46.16394 | -122.69217 | 34084 ft | 414 kts | 353° |
| 2026-05-05 18:00 | 46.19237 | -122.69745 | 33457 ft | 408 kts | 353° |
| 2026-05-05 18:00 | 46.22072 | -122.70271 | 31649 ft | 416 kts | 353° |
| 2026-05-05 18:00 | 46.24980 | -122.70821 | 29779 ft | 426 kts | 353° |
| 2026-05-05 18:01 | 46.27950 | -122.71398 | 27764 ft | 434 kts | 353° |
| 2026-05-05 18:01 | 46.30982 | -122.71996 | 26760 ft | 441 kts | 353° |
| 2026-05-05 18:01 | 46.33988 | -122.72269 | 26572 ft | 425 kts | 359° |
| 2026-05-05 18:01 | 46.36925 | -122.72374 | 26001 ft | 420 kts | 359° |
| 2026-05-05 18:02 | 46.39841 | -122.72484 | 25366 ft | 418 kts | 359° |
| 2026-05-05 18:02 | 46.42740 | -122.72597 | 24737 ft | 415 kts | 359° |
| 2026-05-05 18:02 | 46.45620 | -122.72711 | 24118 ft | 413 kts | 359° |
| 2026-05-05 18:02 | 46.48488 | -122.72815 | 23501 ft | 411 kts | 359° |
| 2026-05-05 18:03 | 46.51334 | -122.72914 | 22869 ft | 407 kts | 359° |
| 2026-05-05 18:03 | 46.54145 | -122.73015 | 22295 ft | 402 kts | 359° |
| 2026-05-05 18:03 | 46.56920 | -122.73118 | 21764 ft | 396 kts | 359° |
| 2026-05-05 18:03 | 46.59623 | -122.73216 | 21230 ft | 391 kts | 360° |
| 2026-05-05 18:04 | 46.62321 | -122.73314 | 20725 ft | 385 kts | 360° |
| 2026-05-05 18:04 | 46.64985 | -122.73411 | 20237 ft | 380 kts | 360° |
| 2026-05-05 18:04 | 46.67612 | -122.73509 | 19772 ft | 375 kts | 0° |
| 2026-05-05 18:04 | 46.70199 | -122.73603 | 19381 ft | 368 kts | 0° |
| 2026-05-05 18:05 | 46.72709 | -122.73693 | 19252 ft | 354 kts | 0° |
| 2026-05-05 18:05 | 46.75129 | -122.73772 | 19075 ft | 343 kts | 2° |
| 2026-05-05 18:05 | 46.77458 | -122.73359 | 18852 ft | 333 kts | 15° |
| 2026-05-05 18:05 | 46.79626 | -122.72178 | 18619 ft | 335 kts | 27° |
| 2026-05-05 18:06 | 46.81561 | -122.70265 | 18068 ft | 336 kts | 39° |
| 2026-05-05 18:06 | 46.82748 | -122.68812 | 17656 ft | 338 kts | 38° |
| 2026-05-05 18:06 | 46.85158 | -122.65930 | 17144 ft | 332 kts | 37° |
| 2026-05-05 18:06 | 46.86966 | -122.63853 | 16680 ft | 330 kts | 36° |
| 2026-05-05 18:07 | 46.88777 | -122.61813 | 16225 ft | 328 kts | 36° |
| 2026-05-05 18:07 | 46.90581 | -122.59791 | 15894 ft | 323 kts | 36° |
| 2026-05-05 18:07 | 46.92327 | -122.57827 | 15758 ft | 311 kts | 36° |
| 2026-05-05 18:07 | 46.94132 | -122.56184 | 15535 ft | 303 kts | 24° |
| 2026-05-05 18:08 | 46.96102 | -122.55159 | 15188 ft | 300 kts | 16° |
| 2026-05-05 18:08 | 46.98100 | -122.54302 | 14797 ft | 299 kts | 16° |
| 2026-05-05 18:08 | 47.00091 | -122.53441 | 14413 ft | 298 kts | 16° |
| 2026-05-05 18:08 | 47.02072 | -122.52580 | 14047 ft | 297 kts | 16° |
| 2026-05-05 18:09 | 47.04050 | -122.51718 | 13651 ft | 296 kts | 16° |
| 2026-05-05 18:09 | 47.06023 | -122.50856 | 13242 ft | 295 kts | 16° |
| 2026-05-05 18:09 | 47.08000 | -122.50049 | 12834 ft | 294 kts | 11° |
| 2026-05-05 18:09 | 47.10029 | -122.49641 | 12389 ft | 295 kts | 7° |
| 2026-05-05 18:10 | 47.12034 | -122.49280 | 12069 ft | 292 kts | 7° |
| 2026-05-05 18:10 | 47.14069 | -122.48910 | 11752 ft | 290 kts | 7° |
| 2026-05-05 18:10 | 47.16037 | -122.48551 | 11449 ft | 289 kts | 7° |
| 2026-05-05 18:10 | 47.18028 | -122.48184 | 11138 ft | 288 kts | 7° |
| 2026-05-05 18:11 | 47.20018 | -122.47824 | 10795 ft | 288 kts | 7° |
| 2026-05-05 18:11 | 47.22010 | -122.47504 | 10388 ft | 288 kts | 6° |
| 2026-05-05 18:11 | 47.24009 | -122.47206 | 10004 ft | 289 kts | 6° |
| 2026-05-05 18:11 | 47.26005 | -122.46913 | 9572 ft | 288 kts | 6° |
| 2026-05-05 18:12 | 47.27997 | -122.46618 | 9211 ft | 286 kts | 6° |
| 2026-05-05 18:12 | 47.29975 | -122.46326 | 8799 ft | 285 kts | 6° |
| 2026-05-05 18:12 | 47.31914 | -122.46040 | 8652 ft | 274 kts | 6° |
| 2026-05-05 18:12 | 47.33775 | -122.45763 | 8517 ft | 264 kts | 6° |
| 2026-05-05 18:13 | 47.35571 | -122.45536 | 8367 ft | 255 kts | 1° |
| 2026-05-05 18:13 | 47.37355 | -122.45535 | 8074 ft | 256 kts | 0° |
| 2026-05-05 18:13 | 47.39129 | -122.45533 | 7750 ft | 254 kts | 0° |
| 2026-05-05 18:13 | 47.40890 | -122.45533 | 7428 ft | 252 kts | 0° |
| 2026-05-05 18:14 | 47.42643 | -122.45533 | 7108 ft | 252 kts | 0° |
| 2026-05-05 18:14 | 47.44394 | -122.45543 | 6654 ft | 256 kts | 360° |
| 2026-05-05 18:14 | 47.46151 | -122.45606 | 6473 ft | 247 kts | 359° |
| 2026-05-05 18:14 | 47.47835 | -122.45678 | 6346 ft | 237 kts | 359° |
| 2026-05-05 18:15 | 47.49433 | -122.45744 | 6198 ft | 229 kts | 359° |
| 2026-05-05 18:15 | 47.51000 | -122.45799 | 6046 ft | 223 kts | 359° |
| 2026-05-05 18:15 | 47.52555 | -122.45840 | 5983 ft | 223 kts | 359° |
| 2026-05-05 18:15 | 47.54104 | -122.45878 | 5994 ft | 223 kts | 359° |
| 2026-05-05 18:16 | 47.55655 | -122.45916 | 6004 ft | 223 kts | 359° |
| 2026-05-05 18:16 | 47.57205 | -122.45955 | 5995 ft | 222 kts | 359° |
| 2026-05-05 18:16 | 47.58758 | -122.45996 | 5994 ft | 224 kts | 359° |
| 2026-05-05 18:16 | 47.60313 | -122.46037 | 6002 ft | 223 kts | 359° |
| 2026-05-05 18:17 | 47.61871 | -122.46075 | 5995 ft | 224 kts | 359° |
| 2026-05-05 18:17 | 47.63423 | -122.46112 | 5993 ft | 222 kts | 359° |
| 2026-05-05 18:17 | 47.64974 | -122.46149 | 5999 ft | 223 kts | 359° |
| 2026-05-05 18:17 | 47.66522 | -122.46188 | 5997 ft | 222 kts | 359° |
| 2026-05-05 18:18 | 47.68073 | -122.46225 | 5998 ft | 223 kts | 359° |
| 2026-05-05 18:18 | 47.69624 | -122.46262 | 6001 ft | 222 kts | 359° |
| 2026-05-05 18:18 | 47.71146 | -122.46298 | 5988 ft | 211 kts | 359° |
| 2026-05-05 18:18 | 47.72541 | -122.46333 | 6012 ft | 192 kts | 359° |
| 2026-05-05 18:19 | 47.73871 | -122.46329 | 5992 ft | 190 kts | 6° |
| 2026-05-05 18:19 | 47.75052 | -122.45520 | 5738 ft | 192 kts | 42° |
| 2026-05-05 18:19 | 47.75640 | -122.43751 | 5366 ft | 197 kts | 82° |
| 2026-05-05 18:19 | 47.75474 | -122.41727 | 5010 ft | 199 kts | 102° |
| 2026-05-05 18:20 | 47.75093 | -122.39751 | 4644 ft | 199 kts | 104° |
| 2026-05-05 18:20 | 47.74686 | -122.37794 | 4288 ft | 197 kts | 105° |
| 2026-05-05 18:20 | 47.74293 | -122.35859 | 4018 ft | 194 kts | 106° |
| 2026-05-05 18:20 | 47.73570 | -122.34194 | 3996 ft | 195 kts | 137° |
| 2026-05-05 18:21 | 47.72491 | -122.32949 | 4001 ft | 196 kts | 144° |
| 2026-05-05 18:21 | 47.71324 | -122.31898 | 3992 ft | 197 kts | 159° |
| 2026-05-05 18:21 | 47.69987 | -122.31574 | 4002 ft | 196 kts | 181° |
| 2026-05-05 18:21 | 47.68622 | -122.31590 | 4003 ft | 196 kts | 181° |
| 2026-05-05 18:22 | 47.67247 | -122.31603 | 4004 ft | 198 kts | 181° |
| 2026-05-05 18:22 | 47.65868 | -122.31615 | 4002 ft | 197 kts | 181° |
| 2026-05-05 18:22 | 47.64494 | -122.31628 | 3929 ft | 198 kts | 181° |
| 2026-05-05 18:22 | 47.63120 | -122.31639 | 3725 ft | 197 kts | 181° |
| 2026-05-05 18:23 | 47.61760 | -122.31651 | 3487 ft | 194 kts | 181° |
| 2026-05-05 18:23 | 47.60421 | -122.31663 | 3237 ft | 191 kts | 181° |
| 2026-05-05 18:23 | 47.59104 | -122.31674 | 2985 ft | 188 kts | 182° |
| 2026-05-05 18:23 | 47.57813 | -122.31685 | 2739 ft | 183 kts | 183° |
| 2026-05-05 18:24 | 47.56596 | -122.31695 | 2497 ft | 172 kts | 183° |
| 2026-05-05 18:24 | 47.55435 | -122.31705 | 2284 ft | 161 kts | 183° |
| 2026-05-05 18:24 | 47.54332 | -122.31715 | 2062 ft | 155 kts | 182° |
| 2026-05-05 18:24 | 47.53252 | -122.31726 | 1845 ft | 156 kts | 183° |
| 2026-05-05 18:25 | 47.52172 | -122.31735 | 1625 ft | 155 kts | 181° |
| 2026-05-05 18:25 | 47.51808 | -122.31738 | 1562 ft | 153 kts | 181° |
| 2026-05-05 18:25 | 47.50102 | -122.31753 | 1217 ft | 145 kts | 182° |
| 2026-05-05 18:25 | 47.49100 | -122.31758 | 1023 ft | 143 kts | 180° |
| 2026-05-05 18:26 | 47.48099 | -122.31771 | 781 ft | 144 kts | 183° |
| 2026-05-05 18:26 | 47.47103 | -122.31783 | 620 ft | 142 kts | 183° |
| 2026-05-05 18:26 | 47.46110 | -122.31794 | 437 ft | 142 kts | 181° |
| 2026-05-05 18:26 | 47.45235 | -122.31798 | 417 ft | 96 kts | 180° |
| 2026-05-05 18:27 | 47.44863 | -122.31800 | 428 ft | 24 kts | 180° |
| 2026-05-05 18:27 | 47.44710 | -122.31793 | 430 ft | 20 kts | 175° |
| 2026-05-05 18:27 | 47.44578 | -122.31745 | 427 ft | 19 kts | 160° |
| 2026-05-05 18:27 | 47.44466 | -122.31657 | 424 ft | 18 kts | 149° |
| 2026-05-05 18:28 | 47.44273 | -122.31480 | 432 ft | 15 kts | 137° |
| 2026-05-05 18:28 | 47.44220 | -122.31351 | 429 ft | 14 kts | 108° |
| 2026-05-05 18:28 | 47.44191 | -122.31213 | 425 ft | 14 kts | 107° |
| 2026-05-05 18:29 | 47.44134 | -122.31096 | 420 ft | 14 kts | 139° |
| 2026-05-05 18:29 | 47.44069 | -122.31034 | 424 ft | 10 kts | 150° |
| 2026-05-05 18:29 | 47.44012 | -122.30986 | 427 ft | 9 kts | 150° |
| 2026-05-05 18:29 | 47.43959 | -122.30941 | 424 ft | 9 kts | 149° |
| 2026-05-05 18:30 | 47.43911 | -122.30885 | 425 ft | 9 kts | 131° |
| 2026-05-05 18:30 | 47.43883 | -122.30803 | 426 ft | 9 kts | 101° |
| 2026-05-05 18:30 | 47.43889 | -122.30723 | 425 ft | 7 kts | 80° |
| 2026-05-05 18:30 | 47.43902 | -122.30680 | 430 ft | 4 kts | 58° |
| 2026-05-05 18:31 | 47.43933 | -122.30652 | 424 ft | 5 kts | 1° |
| 2026-05-05 18:31 | 47.43957 | -122.30637 | 429 ft | 2 kts | 25° |
| 2026-05-05 18:31 | 47.43970 | -122.30603 | 429 ft | 5 kts | 70° |
| 2026-05-05 18:31 | 47.43975 | -122.30522 | 432 ft | 10 kts | 88° |
| 2026-05-05 18:32 | 47.43976 | -122.30427 | 432 ft | 8 kts | 89° |
| 2026-05-05 18:32 | 47.43980 | -122.30348 | 428 ft | 7 kts | 80° |
| 2026-05-05 18:32 | 47.43995 | -122.30288 | 420 ft | 6 kts | 65° |
| 2026-05-05 18:32 | 47.44010 | -122.30245 | 422 ft | 4 kts | 60° |
| 2026-05-05 18:33 | 47.44023 | -122.30216 | 429 ft | 3 kts | 56° |
| 2026-05-05 18:33 | 47.44032 | -122.30188 | 429 ft | 6 kts | 71° |
| 2026-05-05 18:33 | 47.44033 | -122.30125 | 432 ft | 7 kts | 102° |
| 2026-05-05 18:33 | 47.44004 | -122.30053 | 430 ft | 9 kts | 127° |
| 2026-05-05 18:34 | 47.43963 | -122.29992 | 422 ft | 8 kts | 132° |
| 2026-05-05 18:34 | 47.43935 | -122.29930 | 426 ft | 6 kts | 97° |
| 2026-05-05 18:34 | 47.43957 | -122.29889 | 430 ft | 4 kts | 43° |
| 2026-05-05 18:34 | 47.43969 | -122.29869 | 421 ft | 0 kts | 46° |
| 2026-05-05 18:35 | 47.43970 | -122.29867 | 422 ft | 0 kts | 47° |
| 2026-05-05 18:35 | 47.43972 | -122.29864 | 424 ft | 0 kts | 47° |